sensor_id;sensor_type;location;lat;lon;timestamp;P1;durP1;ratioP1;P2;durP2;ratioP2
5880;SDS011;2966;52.598;10.928;2022-09-20T00:00:15;11.87;;;5.30;;
5880;SDS011;2966;52.598;10.928;2022-09-20T00:02:42;15.50;;;6.33;;
5880;SDS011;2966;52.598;10.928;2022-09-20T00:05:09;6.13;;;4.47;;
5880;SDS011;2966;52.598;10.928;2022-09-20T00:07:37;8.77;;;5.17;;
5880;SDS011;2966;52.598;10.928;2022-09-20T00:10:07;15.53;;;5.00;;
5880;SDS011;2966;52.598;10.928;2022-09-20T00:12:36;8.90;;;3.60;;
5880;SDS011;2966;52.598;10.928;2022-09-20T00:15:03;12.90;;;4.70;;
5880;SDS011;2966;52.598;10.928;2022-09-20T00:17:31;8.37;;;4.20;;
5880;SDS011;2966;52.598;10.928;2022-09-20T00:19:58;15.63;;;4.43;;
5880;SDS011;2966;52.598;10.928;2022-09-20T00:22:25;11.53;;;3.97;;
5880;SDS011;2966;52.598;10.928;2022-09-20T00:24:53;6.80;;;3.37;;
5880;SDS011;2966;52.598;10.928;2022-09-20T00:27:19;15.57;;;3.70;;
5880;SDS011;2966;52.598;10.928;2022-09-20T00:29:46;8.37;;;3.00;;
5880;SDS011;2966;52.598;10.928;2022-09-20T00:32:13;5.00;;;3.10;;
5880;SDS011;2966;52.598;10.928;2022-09-20T00:34:39;5.60;;;2.80;;
5880;SDS011;2966;52.598;10.928;2022-09-20T00:37:24;3.60;;;2.70;;
5880;SDS011;2966;52.598;10.928;2022-09-20T00:39:52;5.90;;;2.50;;
5880;SDS011;2966;52.598;10.928;2022-09-20T00:42:25;11.33;;;2.93;;
5880;SDS011;2966;52.598;10.928;2022-09-20T00:44:55;5.57;;;2.73;;
5880;SDS011;2966;52.598;10.928;2022-09-20T00:50:11;8.67;;;3.27;;
5880;SDS011;2966;52.598;10.928;2022-09-20T00:52:47;6.23;;;2.63;;
5880;SDS011;2966;52.598;10.928;2022-09-20T00:55:18;5.93;;;2.70;;
5880;SDS011;2966;52.598;10.928;2022-09-20T00:57:45;6.53;;;2.57;;
5880;SDS011;2966;52.598;10.928;2022-09-20T01:00:13;7.73;;;4.23;;
5880;SDS011;2966;52.598;10.928;2022-09-20T01:02:40;8.03;;;3.23;;
5880;SDS011;2966;52.598;10.928;2022-09-20T01:05:11;3.77;;;1.97;;
5880;SDS011;2966;52.598;10.928;2022-09-20T01:07:40;17.07;;;2.70;;
5880;SDS011;2966;52.598;10.928;2022-09-20T01:10:08;6.83;;;2.90;;
5880;SDS011;2966;52.598;10.928;2022-09-20T01:12:36;6.47;;;3.27;;
5880;SDS011;2966;52.598;10.928;2022-09-20T01:15:05;5.70;;;3.63;;
5880;SDS011;2966;52.598;10.928;2022-09-20T01:17:35;11.00;;;4.27;;
5880;SDS011;2966;52.598;10.928;2022-09-20T01:20:10;11.03;;;3.67;;
5880;SDS011;2966;52.598;10.928;2022-09-20T01:22:43;5.53;;;3.33;;
5880;SDS011;2966;52.598;10.928;2022-09-20T01:25:22;14.07;;;3.40;;
5880;SDS011;2966;52.598;10.928;2022-09-20T01:28:00;10.53;;;3.20;;
5880;SDS011;2966;52.598;10.928;2022-09-20T01:30:28;6.63;;;3.23;;
5880;SDS011;2966;52.598;10.928;2022-09-20T01:33:06;9.93;;;4.13;;
5880;SDS011;2966;52.598;10.928;2022-09-20T01:35:37;6.93;;;3.10;;
5880;SDS011;2966;52.598;10.928;2022-09-20T01:38:10;7.17;;;3.23;;
5880;SDS011;2966;52.598;10.928;2022-09-20T01:40:46;6.10;;;3.73;;
5880;SDS011;2966;52.598;10.928;2022-09-20T01:43:24;9.80;;;4.50;;
5880;SDS011;2966;52.598;10.928;2022-09-20T01:45:55;5.10;;;3.80;;
5880;SDS011;2966;52.598;10.928;2022-09-20T01:48:28;9.07;;;4.90;;
5880;SDS011;2966;52.598;10.928;2022-09-20T01:54:23;16.00;;;5.40;;
5880;SDS011;2966;52.598;10.928;2022-09-20T01:57:21;14.57;;;5.57;;
5880;SDS011;2966;52.598;10.928;2022-09-20T02:00:14;10.40;;;6.10;;
5880;SDS011;2966;52.598;10.928;2022-09-20T02:02:59;10.27;;;6.00;;
5880;SDS011;2966;52.598;10.928;2022-09-20T02:05:57;10.00;;;5.17;;
5880;SDS011;2966;52.598;10.928;2022-09-20T02:11:50;10.13;;;6.30;;
5880;SDS011;2966;52.598;10.928;2022-09-20T02:14:34;9.03;;;5.57;;
5880;SDS011;2966;52.598;10.928;2022-09-20T02:17:12;8.00;;;3.90;;
5880;SDS011;2966;52.598;10.928;2022-09-20T02:19:51;16.43;;;6.70;;
5880;SDS011;2966;52.598;10.928;2022-09-20T02:22:40;13.97;;;5.90;;
5880;SDS011;2966;52.598;10.928;2022-09-20T02:25:17;5.60;;;4.50;;
5880;SDS011;2966;52.598;10.928;2022-09-20T02:27:58;10.53;;;5.63;;
5880;SDS011;2966;52.598;10.928;2022-09-20T02:30:33;9.77;;;5.53;;
5880;SDS011;2966;52.598;10.928;2022-09-20T02:33:17;17.93;;;5.53;;
5880;SDS011;2966;52.598;10.928;2022-09-20T02:36:13;11.03;;;5.70;;
5880;SDS011;2966;52.598;10.928;2022-09-20T02:38:56;7.60;;;5.40;;
5880;SDS011;2966;52.598;10.928;2022-09-20T02:41:36;8.10;;;4.90;;
5880;SDS011;2966;52.598;10.928;2022-09-20T02:44:17;7.47;;;5.73;;
5880;SDS011;2966;52.598;10.928;2022-09-20T02:46:55;10.73;;;5.20;;
5880;SDS011;2966;52.598;10.928;2022-09-20T02:49:34;6.87;;;5.50;;
5880;SDS011;2966;52.598;10.928;2022-09-20T02:52:10;7.27;;;4.70;;
5880;SDS011;2966;52.598;10.928;2022-09-20T02:54:44;10.07;;;5.30;;
5880;SDS011;2966;52.598;10.928;2022-09-20T02:57:18;14.00;;;5.90;;
5880;SDS011;2966;52.598;10.928;2022-09-20T02:59:51;9.33;;;5.67;;
5880;SDS011;2966;52.598;10.928;2022-09-20T03:02:24;12.53;;;5.30;;
5880;SDS011;2966;52.598;10.928;2022-09-20T03:05:03;8.50;;;4.73;;
5880;SDS011;2966;52.598;10.928;2022-09-20T03:07:40;9.23;;;4.57;;
5880;SDS011;2966;52.598;10.928;2022-09-20T03:10:16;8.07;;;5.07;;
5880;SDS011;2966;52.598;10.928;2022-09-20T03:12:51;10.97;;;5.23;;
5880;SDS011;2966;52.598;10.928;2022-09-20T03:15:30;6.53;;;4.50;;
5880;SDS011;2966;52.598;10.928;2022-09-20T03:18:09;7.17;;;5.10;;
5880;SDS011;2966;52.598;10.928;2022-09-20T03:20:42;7.00;;;4.47;;
5880;SDS011;2966;52.598;10.928;2022-09-20T03:23:21;6.67;;;4.73;;
5880;SDS011;2966;52.598;10.928;2022-09-20T03:26:04;18.20;;;5.70;;
5880;SDS011;2966;52.598;10.928;2022-09-20T03:28:41;13.93;;;5.40;;
5880;SDS011;2966;52.598;10.928;2022-09-20T03:31:30;11.90;;;6.57;;
5880;SDS011;2966;52.598;10.928;2022-09-20T03:34:15;15.10;;;7.77;;
5880;SDS011;2966;52.598;10.928;2022-09-20T03:36:55;11.57;;;6.13;;
5880;SDS011;2966;52.598;10.928;2022-09-20T03:39:40;10.47;;;4.90;;
5880;SDS011;2966;52.598;10.928;2022-09-20T03:42:25;6.77;;;6.03;;
5880;SDS011;2966;52.598;10.928;2022-09-20T03:47:53;19.53;;;8.00;;
5880;SDS011;2966;52.598;10.928;2022-09-20T03:50:44;14.57;;;6.70;;
5880;SDS011;2966;52.598;10.928;2022-09-20T03:56:34;19.27;;;6.90;;
5880;SDS011;2966;52.598;10.928;2022-09-20T03:59:16;13.47;;;6.30;;
5880;SDS011;2966;52.598;10.928;2022-09-20T04:02:03;14.77;;;6.90;;
5880;SDS011;2966;52.598;10.928;2022-09-20T04:04:45;10.20;;;6.23;;
5880;SDS011;2966;52.598;10.928;2022-09-20T04:07:18;15.93;;;6.80;;
5880;SDS011;2966;52.598;10.928;2022-09-20T04:12:58;11.80;;;5.50;;
5880;SDS011;2966;52.598;10.928;2022-09-20T04:15:40;13.93;;;6.90;;
5880;SDS011;2966;52.598;10.928;2022-09-20T04:18:15;15.03;;;7.80;;
5880;SDS011;2966;52.598;10.928;2022-09-20T04:20:49;19.60;;;6.77;;
5880;SDS011;2966;52.598;10.928;2022-09-20T04:23:24;13.00;;;7.00;;
5880;SDS011;2966;52.598;10.928;2022-09-20T04:26:01;8.40;;;5.87;;
5880;SDS011;2966;52.598;10.928;2022-09-20T04:28:32;13.83;;;6.70;;
5880;SDS011;2966;52.598;10.928;2022-09-20T04:31:08;14.73;;;7.30;;
5880;SDS011;2966;52.598;10.928;2022-09-20T04:33:46;10.93;;;7.40;;
5880;SDS011;2966;52.598;10.928;2022-09-20T04:36:19;10.40;;;7.33;;
5880;SDS011;2966;52.598;10.928;2022-09-20T04:39:10;12.43;;;5.63;;
5880;SDS011;2966;52.598;10.928;2022-09-20T04:54:31;10.97;;;6.60;;
5880;SDS011;2966;52.598;10.928;2022-09-20T04:57:21;8.27;;;7.00;;
5880;SDS011;2966;52.598;10.928;2022-09-20T05:00:04;14.70;;;7.97;;
5880;SDS011;2966;52.598;10.928;2022-09-20T05:02:41;16.87;;;7.13;;
5880;SDS011;2966;52.598;10.928;2022-09-20T05:05:42;14.97;;;7.37;;
5880;SDS011;2966;52.598;10.928;2022-09-20T05:14:27;20.27;;;7.10;;
5880;SDS011;2966;52.598;10.928;2022-09-20T05:17:11;11.70;;;6.83;;
5880;SDS011;2966;52.598;10.928;2022-09-20T05:19:48;10.73;;;6.60;;
5880;SDS011;2966;52.598;10.928;2022-09-20T05:25:40;9.73;;;5.50;;
5880;SDS011;2966;52.598;10.928;2022-09-20T05:28:24;11.97;;;6.77;;
5880;SDS011;2966;52.598;10.928;2022-09-20T05:30:56;11.53;;;6.00;;
5880;SDS011;2966;52.598;10.928;2022-09-20T05:33:29;12.13;;;6.70;;
5880;SDS011;2966;52.598;10.928;2022-09-20T05:36:05;12.97;;;6.67;;
5880;SDS011;2966;52.598;10.928;2022-09-20T05:38:41;13.33;;;6.90;;
5880;SDS011;2966;52.598;10.928;2022-09-20T05:41:15;14.70;;;6.77;;
5880;SDS011;2966;52.598;10.928;2022-09-20T05:43:57;8.47;;;5.73;;
5880;SDS011;2966;52.598;10.928;2022-09-20T05:46:34;11.77;;;6.90;;
5880;SDS011;2966;52.598;10.928;2022-09-20T05:49:11;9.07;;;4.90;;
5880;SDS011;2966;52.598;10.928;2022-09-20T05:51:50;14.27;;;7.40;;
5880;SDS011;2966;52.598;10.928;2022-09-20T05:54:46;13.27;;;7.17;;
5880;SDS011;2966;52.598;10.928;2022-09-20T05:57:30;11.20;;;7.70;;
5880;SDS011;2966;52.598;10.928;2022-09-20T06:00:06;14.63;;;5.30;;
5880;SDS011;2966;52.598;10.928;2022-09-20T06:02:39;13.40;;;6.77;;
5880;SDS011;2966;52.598;10.928;2022-09-20T06:05:13;13.90;;;6.37;;
5880;SDS011;2966;52.598;10.928;2022-09-20T06:07:47;10.60;;;6.33;;
5880;SDS011;2966;52.598;10.928;2022-09-20T06:10:27;12.40;;;6.67;;
5880;SDS011;2966;52.598;10.928;2022-09-20T06:13:32;10.20;;;5.10;;
5880;SDS011;2966;52.598;10.928;2022-09-20T06:16:16;18.00;;;6.40;;
5880;SDS011;2966;52.598;10.928;2022-09-20T06:18:53;10.83;;;5.23;;
5880;SDS011;2966;52.598;10.928;2022-09-20T06:21:34;11.83;;;6.20;;
5880;SDS011;2966;52.598;10.928;2022-09-20T06:24:14;9.57;;;5.20;;
5880;SDS011;2966;52.598;10.928;2022-09-20T06:26:51;8.50;;;5.67;;
5880;SDS011;2966;52.598;10.928;2022-09-20T06:29:26;11.03;;;5.13;;
5880;SDS011;2966;52.598;10.928;2022-09-20T06:31:55;10.43;;;6.23;;
5880;SDS011;2966;52.598;10.928;2022-09-20T06:34:22;13.00;;;7.23;;
5880;SDS011;2966;52.598;10.928;2022-09-20T06:36:52;6.77;;;4.50;;
5880;SDS011;2966;52.598;10.928;2022-09-20T06:39:45;9.30;;;6.20;;
5880;SDS011;2966;52.598;10.928;2022-09-20T06:42:34;6.00;;;5.40;;
5880;SDS011;2966;52.598;10.928;2022-09-20T06:45:02;20.03;;;11.00;;
5880;SDS011;2966;52.598;10.928;2022-09-20T06:47:30;7.77;;;6.13;;
5880;SDS011;2966;52.598;10.928;2022-09-20T06:49:56;9.47;;;6.30;;
5880;SDS011;2966;52.598;10.928;2022-09-20T06:52:24;9.57;;;7.07;;
5880;SDS011;2966;52.598;10.928;2022-09-20T06:54:52;8.10;;;5.80;;
5880;SDS011;2966;52.598;10.928;2022-09-20T06:57:21;11.00;;;5.57;;
5880;SDS011;2966;52.598;10.928;2022-09-20T06:59:52;7.90;;;5.97;;
5880;SDS011;2966;52.598;10.928;2022-09-20T07:02:19;9.93;;;4.93;;
5880;SDS011;2966;52.598;10.928;2022-09-20T07:04:45;8.93;;;5.00;;
5880;SDS011;2966;52.598;10.928;2022-09-20T07:07:14;9.10;;;7.00;;
5880;SDS011;2966;52.598;10.928;2022-09-20T07:09:43;12.00;;;6.37;;
5880;SDS011;2966;52.598;10.928;2022-09-20T07:12:11;8.67;;;5.57;;
5880;SDS011;2966;52.598;10.928;2022-09-20T07:14:38;9.90;;;5.50;;
5880;SDS011;2966;52.598;10.928;2022-09-20T07:17:05;7.43;;;5.23;;
5880;SDS011;2966;52.598;10.928;2022-09-20T07:19:32;8.43;;;6.00;;
5880;SDS011;2966;52.598;10.928;2022-09-20T07:22:00;9.80;;;6.30;;
5880;SDS011;2966;52.598;10.928;2022-09-20T07:24:27;7.60;;;5.90;;
5880;SDS011;2966;52.598;10.928;2022-09-20T07:26:57;7.40;;;5.80;;
5880;SDS011;2966;52.598;10.928;2022-09-20T07:29:27;7.80;;;5.87;;
5880;SDS011;2966;52.598;10.928;2022-09-20T07:31:54;6.63;;;4.90;;
5880;SDS011;2966;52.598;10.928;2022-09-20T07:34:21;5.20;;;3.90;;
5880;SDS011;2966;52.598;10.928;2022-09-20T07:36:48;10.13;;;6.00;;
5880;SDS011;2966;52.598;10.928;2022-09-20T07:39:16;7.50;;;5.13;;
5880;SDS011;2966;52.598;10.928;2022-09-20T07:41:43;7.40;;;4.97;;
5880;SDS011;2966;52.598;10.928;2022-09-20T07:44:12;8.97;;;5.73;;
5880;SDS011;2966;52.598;10.928;2022-09-20T07:46:50;7.53;;;4.90;;
5880;SDS011;2966;52.598;10.928;2022-09-20T07:49:19;7.30;;;5.60;;
5880;SDS011;2966;52.598;10.928;2022-09-20T07:51:46;9.67;;;7.80;;
5880;SDS011;2966;52.598;10.928;2022-09-20T07:54:13;9.73;;;6.83;;
5880;SDS011;2966;52.598;10.928;2022-09-20T07:56:43;9.03;;;5.17;;
5880;SDS011;2966;52.598;10.928;2022-09-20T07:59:11;9.63;;;5.60;;
5880;SDS011;2966;52.598;10.928;2022-09-20T08:01:38;7.57;;;6.10;;
5880;SDS011;2966;52.598;10.928;2022-09-20T08:04:07;7.10;;;6.10;;
5880;SDS011;2966;52.598;10.928;2022-09-20T08:06:35;9.17;;;5.87;;
5880;SDS011;2966;52.598;10.928;2022-09-20T08:09:03;6.00;;;4.50;;
5880;SDS011;2966;52.598;10.928;2022-09-20T08:11:29;12.50;;;6.00;;
5880;SDS011;2966;52.598;10.928;2022-09-20T08:13:57;15.43;;;5.87;;
5880;SDS011;2966;52.598;10.928;2022-09-20T08:16:25;7.90;;;5.30;;
5880;SDS011;2966;52.598;10.928;2022-09-20T08:18:53;7.60;;;5.60;;
5880;SDS011;2966;52.598;10.928;2022-09-20T08:21:23;9.03;;;6.10;;
5880;SDS011;2966;52.598;10.928;2022-09-20T08:23:51;8.50;;;5.07;;
5880;SDS011;2966;52.598;10.928;2022-09-20T08:26:18;6.67;;;5.00;;
5880;SDS011;2966;52.598;10.928;2022-09-20T08:28:49;9.20;;;5.77;;
5880;SDS011;2966;52.598;10.928;2022-09-20T08:31:18;8.40;;;5.17;;
5880;SDS011;2966;52.598;10.928;2022-09-20T08:33:47;8.23;;;5.70;;
5880;SDS011;2966;52.598;10.928;2022-09-20T08:36:15;11.83;;;6.00;;
5880;SDS011;2966;52.598;10.928;2022-09-20T08:38:44;11.07;;;7.30;;
5880;SDS011;2966;52.598;10.928;2022-09-20T08:41:11;5.10;;;4.70;;
5880;SDS011;2966;52.598;10.928;2022-09-20T08:43:41;11.13;;;5.67;;
5880;SDS011;2966;52.598;10.928;2022-09-20T08:46:12;7.33;;;5.00;;
5880;SDS011;2966;52.598;10.928;2022-09-20T08:48:42;10.03;;;5.83;;
5880;SDS011;2966;52.598;10.928;2022-09-20T08:51:11;4.70;;;4.10;;
5880;SDS011;2966;52.598;10.928;2022-09-20T08:53:41;8.00;;;6.03;;
5880;SDS011;2966;52.598;10.928;2022-09-20T08:56:11;6.90;;;4.47;;
5880;SDS011;2966;52.598;10.928;2022-09-20T08:58:44;7.37;;;5.00;;
5880;SDS011;2966;52.598;10.928;2022-09-20T09:01:12;8.33;;;5.23;;
5880;SDS011;2966;52.598;10.928;2022-09-20T09:03:43;6.80;;;5.40;;
5880;SDS011;2966;52.598;10.928;2022-09-20T09:06:11;6.27;;;5.03;;
5880;SDS011;2966;52.598;10.928;2022-09-20T09:08:40;5.33;;;4.50;;
5880;SDS011;2966;52.598;10.928;2022-09-20T09:11:11;6.60;;;5.33;;
5880;SDS011;2966;52.598;10.928;2022-09-20T09:13:42;5.70;;;3.87;;
5880;SDS011;2966;52.598;10.928;2022-09-20T09:16:17;4.90;;;3.67;;
5880;SDS011;2966;52.598;10.928;2022-09-20T09:18:46;6.60;;;4.60;;
5880;SDS011;2966;52.598;10.928;2022-09-20T09:21:16;9.13;;;4.80;;
5880;SDS011;2966;52.598;10.928;2022-09-20T09:23:48;6.03;;;4.33;;
5880;SDS011;2966;52.598;10.928;2022-09-20T09:26:18;7.27;;;4.37;;
5880;SDS011;2966;52.598;10.928;2022-09-20T09:28:46;5.80;;;5.03;;
5880;SDS011;2966;52.598;10.928;2022-09-20T09:31:28;5.37;;;4.50;;
5880;SDS011;2966;52.598;10.928;2022-09-20T09:33:57;6.17;;;5.17;;
5880;SDS011;2966;52.598;10.928;2022-09-20T09:36:24;5.53;;;4.10;;
5880;SDS011;2966;52.598;10.928;2022-09-20T09:41:41;5.60;;;4.57;;
5880;SDS011;2966;52.598;10.928;2022-09-20T09:44:17;5.73;;;4.20;;
5880;SDS011;2966;52.598;10.928;2022-09-20T09:46:46;8.70;;;4.80;;
5880;SDS011;2966;52.598;10.928;2022-09-20T09:49:14;5.13;;;4.13;;
5880;SDS011;2966;52.598;10.928;2022-09-20T09:51:59;4.63;;;4.23;;
5880;SDS011;2966;52.598;10.928;2022-09-20T09:54:30;7.10;;;3.80;;
5880;SDS011;2966;52.598;10.928;2022-09-20T09:57:02;5.20;;;4.03;;
5880;SDS011;2966;52.598;10.928;2022-09-20T10:02:30;6.20;;;3.70;;
5880;SDS011;2966;52.598;10.928;2022-09-20T10:05:19;5.37;;;4.47;;
5880;SDS011;2966;52.598;10.928;2022-09-20T10:07:52;5.90;;;3.90;;
5880;SDS011;2966;52.598;10.928;2022-09-20T10:10:27;5.47;;;3.40;;
5880;SDS011;2966;52.598;10.928;2022-09-20T10:13:03;5.07;;;3.60;;
5880;SDS011;2966;52.598;10.928;2022-09-20T10:15:42;4.73;;;4.30;;
5880;SDS011;2966;52.598;10.928;2022-09-20T10:18:33;4.17;;;3.77;;
5880;SDS011;2966;52.598;10.928;2022-09-20T10:21:13;3.13;;;2.83;;
5880;SDS011;2966;52.598;10.928;2022-09-20T10:23:51;3.63;;;3.30;;
5880;SDS011;2966;52.598;10.928;2022-09-20T10:26:30;6.60;;;3.30;;
5880;SDS011;2966;52.598;10.928;2022-09-20T10:29:11;3.53;;;3.13;;
5880;SDS011;2966;52.598;10.928;2022-09-20T10:31:50;5.00;;;4.00;;
5880;SDS011;2966;52.598;10.928;2022-09-20T10:34:45;2.30;;;2.10;;
5880;SDS011;2966;52.598;10.928;2022-09-20T10:37:32;3.67;;;3.37;;
5880;SDS011;2966;52.598;10.928;2022-09-20T10:40:19;3.67;;;2.90;;
5880;SDS011;2966;52.598;10.928;2022-09-20T10:43:17;3.43;;;2.80;;
5880;SDS011;2966;52.598;10.928;2022-09-20T10:45:53;4.20;;;3.43;;
5880;SDS011;2966;52.598;10.928;2022-09-20T10:48:30;2.83;;;2.30;;
5880;SDS011;2966;52.598;10.928;2022-09-20T10:51:06;2.30;;;2.10;;
5880;SDS011;2966;52.598;10.928;2022-09-20T10:53:40;6.07;;;3.10;;
5880;SDS011;2966;52.598;10.928;2022-09-20T10:56:15;4.40;;;3.17;;
5880;SDS011;2966;52.598;10.928;2022-09-20T10:59:05;2.67;;;2.33;;
5880;SDS011;2966;52.598;10.928;2022-09-20T11:01:47;5.07;;;2.03;;
5880;SDS011;2966;52.598;10.928;2022-09-20T11:04:27;5.27;;;1.83;;
5880;SDS011;2966;52.598;10.928;2022-09-20T11:07:15;5.30;;;2.30;;
5880;SDS011;2966;52.598;10.928;2022-09-20T11:09:46;2.60;;;2.30;;
5880;SDS011;2966;52.598;10.928;2022-09-20T11:12:20;1.80;;;1.70;;
5880;SDS011;2966;52.598;10.928;2022-09-20T11:14:53;1.87;;;1.77;;
5880;SDS011;2966;52.598;10.928;2022-09-20T11:17:24;2.40;;;2.20;;
5880;SDS011;2966;52.598;10.928;2022-09-20T11:19:56;3.13;;;2.83;;
5880;SDS011;2966;52.598;10.928;2022-09-20T11:22:26;1.97;;;1.77;;
5880;SDS011;2966;52.598;10.928;2022-09-20T11:24:59;2.93;;;1.60;;
5880;SDS011;2966;52.598;10.928;2022-09-20T11:27:31;2.23;;;2.03;;
5880;SDS011;2966;52.598;10.928;2022-09-20T11:30:05;2.30;;;1.60;;
5880;SDS011;2966;52.598;10.928;2022-09-20T11:32:39;1.70;;;1.30;;
5880;SDS011;2966;52.598;10.928;2022-09-20T11:35:13;1.50;;;1.40;;
5880;SDS011;2966;52.598;10.928;2022-09-20T11:37:50;3.70;;;1.70;;
5880;SDS011;2966;52.598;10.928;2022-09-20T11:40:24;1.97;;;1.87;;
5880;SDS011;2966;52.598;10.928;2022-09-20T11:42:53;1.60;;;1.47;;
5880;SDS011;2966;52.598;10.928;2022-09-20T11:45:24;2.00;;;1.27;;
5880;SDS011;2966;52.598;10.928;2022-09-20T11:47:52;1.70;;;1.60;;
5880;SDS011;2966;52.598;10.928;2022-09-20T11:53:41;1.77;;;1.67;;
5880;SDS011;2966;52.598;10.928;2022-09-20T11:56:26;1.37;;;1.27;;
5880;SDS011;2966;52.598;10.928;2022-09-20T11:58:56;1.07;;;0.83;;
5880;SDS011;2966;52.598;10.928;2022-09-20T12:01:26;2.63;;;1.50;;
5880;SDS011;2966;52.598;10.928;2022-09-20T12:03:56;2.37;;;1.10;;
5880;SDS011;2966;52.598;10.928;2022-09-20T12:06:27;1.90;;;1.57;;
5880;SDS011;2966;52.598;10.928;2022-09-20T12:08:57;1.53;;;1.23;;
5880;SDS011;2966;52.598;10.928;2022-09-20T12:11:26;1.30;;;1.20;;
5880;SDS011;2966;52.598;10.928;2022-09-20T12:14:00;1.40;;;1.30;;
5880;SDS011;2966;52.598;10.928;2022-09-20T12:16:38;0.83;;;0.83;;
5880;SDS011;2966;52.598;10.928;2022-09-20T12:19:07;1.03;;;0.97;;
5880;SDS011;2966;52.598;10.928;2022-09-20T12:27:55;5.67;;;1.00;;
5880;SDS011;2966;52.598;10.928;2022-09-20T12:30:23;0.70;;;0.60;;
5880;SDS011;2966;52.598;10.928;2022-09-20T12:32:52;2.40;;;1.70;;
5880;SDS011;2966;52.598;10.928;2022-09-20T12:38:23;1.03;;;0.60;;
5880;SDS011;2966;52.598;10.928;2022-09-20T12:40:58;0.70;;;0.50;;
5880;SDS011;2966;52.598;10.928;2022-09-20T12:43:33;0.67;;;0.53;;
5880;SDS011;2966;52.598;10.928;2022-09-20T12:46:03;1.47;;;0.80;;
5880;SDS011;2966;52.598;10.928;2022-09-20T12:48:34;0.70;;;0.60;;
5880;SDS011;2966;52.598;10.928;2022-09-20T12:51:03;5.53;;;0.77;;
5880;SDS011;2966;52.598;10.928;2022-09-20T12:53:59;5.30;;;1.50;;
5880;SDS011;2966;52.598;10.928;2022-09-20T12:56:29;0.70;;;0.70;;
5880;SDS011;2966;52.598;10.928;2022-09-20T12:59:00;2.30;;;0.80;;
5880;SDS011;2966;52.598;10.928;2022-09-20T13:01:36;1.27;;;0.70;;
5880;SDS011;2966;52.598;10.928;2022-09-20T13:07:25;0.80;;;0.53;;
5880;SDS011;2966;52.598;10.928;2022-09-20T13:10:13;2.27;;;1.00;;
5880;SDS011;2966;52.598;10.928;2022-09-20T13:12:51;2.40;;;1.30;;
5880;SDS011;2966;52.598;10.928;2022-09-20T13:15:20;0.80;;;0.80;;
5880;SDS011;2966;52.598;10.928;2022-09-20T13:17:48;4.03;;;0.97;;
5880;SDS011;2966;52.598;10.928;2022-09-20T13:20:18;1.13;;;1.03;;
5880;SDS011;2966;52.598;10.928;2022-09-20T13:22:49;8.63;;;1.77;;
5880;SDS011;2966;52.598;10.928;2022-09-20T13:25:18;1.77;;;1.10;;
5880;SDS011;2966;52.598;10.928;2022-09-20T13:27:46;3.70;;;1.97;;
5880;SDS011;2966;52.598;10.928;2022-09-20T13:30:17;2.50;;;2.03;;
5880;SDS011;2966;52.598;10.928;2022-09-20T13:32:45;1.87;;;1.77;;
5880;SDS011;2966;52.598;10.928;2022-09-20T13:35:13;1.87;;;1.67;;
5880;SDS011;2966;52.598;10.928;2022-09-20T13:37:46;2.50;;;2.03;;
5880;SDS011;2966;52.598;10.928;2022-09-20T13:40:19;3.70;;;1.33;;
5880;SDS011;2966;52.598;10.928;2022-09-20T13:42:47;3.37;;;2.07;;
5880;SDS011;2966;52.598;10.928;2022-09-20T13:45:15;3.13;;;2.57;;
5880;SDS011;2966;52.598;10.928;2022-09-20T13:47:47;3.70;;;2.40;;
5880;SDS011;2966;52.598;10.928;2022-09-20T13:50:19;1.50;;;1.40;;
5880;SDS011;2966;52.598;10.928;2022-09-20T13:52:48;0.90;;;0.90;;
5880;SDS011;2966;52.598;10.928;2022-09-20T13:55:23;6.00;;;1.60;;
5880;SDS011;2966;52.598;10.928;2022-09-20T13:57:53;1.13;;;1.03;;
5880;SDS011;2966;52.598;10.928;2022-09-20T14:00:22;1.57;;;0.83;;
5880;SDS011;2966;52.598;10.928;2022-09-20T14:02:50;2.27;;;1.73;;
5880;SDS011;2966;52.598;10.928;2022-09-20T14:05:19;0.70;;;0.70;;
5880;SDS011;2966;52.598;10.928;2022-09-20T14:07:48;3.60;;;1.20;;
5880;SDS011;2966;52.598;10.928;2022-09-20T14:10:27;1.43;;;1.03;;
5880;SDS011;2966;52.598;10.928;2022-09-20T14:12:56;1.10;;;1.00;;
5880;SDS011;2966;52.598;10.928;2022-09-20T14:15:25;3.70;;;0.70;;
5880;SDS011;2966;52.598;10.928;2022-09-20T14:17:56;2.20;;;1.00;;
5880;SDS011;2966;52.598;10.928;2022-09-20T14:20:23;8.13;;;1.97;;
5880;SDS011;2966;52.598;10.928;2022-09-20T14:22:51;2.70;;;1.00;;
5880;SDS011;2966;52.598;10.928;2022-09-20T14:25:18;1.33;;;0.83;;
5880;SDS011;2966;52.598;10.928;2022-09-20T14:28:04;1.93;;;0.90;;
5880;SDS011;2966;52.598;10.928;2022-09-20T14:30:32;1.73;;;0.50;;
5880;SDS011;2966;52.598;10.928;2022-09-20T14:33:00;3.90;;;0.83;;
5880;SDS011;2966;52.598;10.928;2022-09-20T14:35:28;1.20;;;1.10;;
5880;SDS011;2966;52.598;10.928;2022-09-20T14:37:57;1.73;;;1.17;;
5880;SDS011;2966;52.598;10.928;2022-09-20T14:40:26;1.10;;;1.00;;
5880;SDS011;2966;52.598;10.928;2022-09-20T14:42:55;1.90;;;0.70;;
5880;SDS011;2966;52.598;10.928;2022-09-20T14:45:28;1.37;;;0.83;;
5880;SDS011;2966;52.598;10.928;2022-09-20T14:47:57;4.23;;;1.30;;
5880;SDS011;2966;52.598;10.928;2022-09-20T14:50:28;0.80;;;0.70;;
5880;SDS011;2966;52.598;10.928;2022-09-20T14:56:06;1.40;;;0.70;;
5880;SDS011;2966;52.598;10.928;2022-09-20T15:01:30;4.23;;;1.00;;
5880;SDS011;2966;52.598;10.928;2022-09-20T15:03:57;6.53;;;0.80;;
5880;SDS011;2966;52.598;10.928;2022-09-20T15:06:24;2.93;;;1.00;;
5880;SDS011;2966;52.598;10.928;2022-09-20T15:08:50;1.90;;;1.13;;
5880;SDS011;2966;52.598;10.928;2022-09-20T15:11:17;3.80;;;1.60;;
5880;SDS011;2966;52.598;10.928;2022-09-20T15:13:44;1.63;;;1.00;;
5880;SDS011;2966;52.598;10.928;2022-09-20T15:16:11;1.87;;;1.23;;
5880;SDS011;2966;52.598;10.928;2022-09-20T15:18:41;1.00;;;0.90;;
5880;SDS011;2966;52.598;10.928;2022-09-20T15:21:09;6.43;;;0.73;;
5880;SDS011;2966;52.598;10.928;2022-09-20T15:23:36;0.70;;;0.60;;
5880;SDS011;2966;52.598;10.928;2022-09-20T15:26:06;1.13;;;1.03;;
5880;SDS011;2966;52.598;10.928;2022-09-20T15:28:35;2.13;;;1.00;;
5880;SDS011;2966;52.598;10.928;2022-09-20T15:31:02;1.47;;;0.70;;
5880;SDS011;2966;52.598;10.928;2022-09-20T15:33:30;1.67;;;0.70;;
5880;SDS011;2966;52.598;10.928;2022-09-20T15:36:01;1.73;;;0.80;;
5880;SDS011;2966;52.598;10.928;2022-09-20T15:38:28;1.80;;;0.97;;
5880;SDS011;2966;52.598;10.928;2022-09-20T15:40:55;4.57;;;0.73;;
5880;SDS011;2966;52.598;10.928;2022-09-20T15:43:25;4.10;;;1.00;;
5880;SDS011;2966;52.598;10.928;2022-09-20T15:45:54;0.93;;;0.80;;
5880;SDS011;2966;52.598;10.928;2022-09-20T15:48:24;1.50;;;1.40;;
5880;SDS011;2966;52.598;10.928;2022-09-20T15:51:00;3.00;;;0.93;;
5880;SDS011;2966;52.598;10.928;2022-09-20T15:53:29;4.97;;;0.83;;
5880;SDS011;2966;52.598;10.928;2022-09-20T15:55:58;3.70;;;1.03;;
5880;SDS011;2966;52.598;10.928;2022-09-20T15:58:26;1.53;;;1.10;;
5880;SDS011;2966;52.598;10.928;2022-09-20T16:00:56;1.17;;;0.93;;
5880;SDS011;2966;52.598;10.928;2022-09-20T16:03:29;3.40;;;1.20;;
5880;SDS011;2966;52.598;10.928;2022-09-20T16:05:56;4.03;;;0.80;;
5880;SDS011;2966;52.598;10.928;2022-09-20T16:08:25;4.40;;;1.50;;
5880;SDS011;2966;52.598;10.928;2022-09-20T16:10:56;4.50;;;1.47;;
5880;SDS011;2966;52.598;10.928;2022-09-20T16:13:23;3.43;;;1.20;;
5880;SDS011;2966;52.598;10.928;2022-09-20T16:15:53;4.37;;;0.87;;
5880;SDS011;2966;52.598;10.928;2022-09-20T16:18:20;7.67;;;1.50;;
5880;SDS011;2966;52.598;10.928;2022-09-20T16:21:05;3.33;;;1.13;;
5880;SDS011;2966;52.598;10.928;2022-09-20T16:23:33;2.17;;;1.23;;
5880;SDS011;2966;52.598;10.928;2022-09-20T16:26:01;2.40;;;0.67;;
5880;SDS011;2966;52.598;10.928;2022-09-20T16:28:28;7.40;;;1.57;;
5880;SDS011;2966;52.598;10.928;2022-09-20T16:30:55;1.13;;;0.90;;
5880;SDS011;2966;52.598;10.928;2022-09-20T16:33:22;2.20;;;0.90;;
5880;SDS011;2966;52.598;10.928;2022-09-20T16:35:53;1.50;;;0.90;;
5880;SDS011;2966;52.598;10.928;2022-09-20T16:38:20;1.83;;;1.10;;
5880;SDS011;2966;52.598;10.928;2022-09-20T16:40:49;1.30;;;1.20;;
5880;SDS011;2966;52.598;10.928;2022-09-20T16:43:16;3.90;;;3.30;;